sensor_id;sensor_type;location;lat;lon;timestamp;P1;durP1;ratioP1;P2;durP2;ratioP2
79452;SDS011;68899;52.116;5.404;2023-10-31T00:01:25;2.90;;;1.17;;
79452;SDS011;68899;52.116;5.404;2023-10-31T00:03:51;2.28;;;0.73;;
79452;SDS011;68899;52.116;5.404;2023-10-31T00:06:18;1.65;;;0.57;;
79452;SDS011;68899;52.116;5.404;2023-10-31T00:08:44;0.98;;;0.43;;
79452;SDS011;68899;52.116;5.404;2023-10-31T00:11:11;1.50;;;0.63;;
79452;SDS011;68899;52.116;5.404;2023-10-31T00:13:38;2.25;;;0.38;;
79452;SDS011;68899;52.116;5.404;2023-10-31T00:16:04;1.05;;;0.30;;
79452;SDS011;68899;52.116;5.404;2023-10-31T00:18:31;2.15;;;0.38;;
79452;SDS011;68899;52.116;5.404;2023-10-31T00:20:57;1.40;;;0.52;;
79452;SDS011;68899;52.116;5.404;2023-10-31T00:23:24;4.68;;;0.70;;
79452;SDS011;68899;52.116;5.404;2023-10-31T00:25:50;3.60;;;1.48;;
79452;SDS011;68899;52.116;5.404;2023-10-31T00:28:17;2.45;;;1.27;;
79452;SDS011;68899;52.116;5.404;2023-10-31T00:30:43;2.65;;;0.93;;
79452;SDS011;68899;52.116;5.404;2023-10-31T00:33:09;3.55;;;1.42;;
79452;SDS011;68899;52.116;5.404;2023-10-31T00:35:36;3.13;;;1.40;;
79452;SDS011;68899;52.116;5.404;2023-10-31T00:38:03;6.05;;;2.03;;
79452;SDS011;68899;52.116;5.404;2023-10-31T00:40:30;5.13;;;2.35;;
79452;SDS011;68899;52.116;5.404;2023-10-31T00:42:57;5.00;;;1.83;;
79452;SDS011;68899;52.116;5.404;2023-10-31T00:45:25;4.57;;;1.70;;
79452;SDS011;68899;52.116;5.404;2023-10-31T00:47:51;7.88;;;2.45;;
79452;SDS011;68899;52.116;5.404;2023-10-31T00:50:18;5.63;;;2.33;;
79452;SDS011;68899;52.116;5.404;2023-10-31T00:52:45;6.47;;;3.05;;
79452;SDS011;68899;52.116;5.404;2023-10-31T00:55:11;6.22;;;2.67;;
79452;SDS011;68899;52.116;5.404;2023-10-31T00:57:38;6.95;;;4.15;;
79452;SDS011;68899;52.116;5.404;2023-10-31T01:00:04;7.13;;;3.20;;
79452;SDS011;68899;52.116;5.404;2023-10-31T01:02:31;7.97;;;2.97;;
79452;SDS011;68899;52.116;5.404;2023-10-31T01:04:58;7.80;;;2.85;;
79452;SDS011;68899;52.116;5.404;2023-10-31T01:07:25;7.05;;;3.30;;
79452;SDS011;68899;52.116;5.404;2023-10-31T01:09:51;6.65;;;2.90;;
79452;SDS011;68899;52.116;5.404;2023-10-31T01:12:17;8.38;;;3.20;;
79452;SDS011;68899;52.116;5.404;2023-10-31T01:14:44;7.78;;;3.13;;
79452;SDS011;68899;52.116;5.404;2023-10-31T01:17:11;9.20;;;3.42;;
79452;SDS011;68899;52.116;5.404;2023-10-31T01:19:37;8.52;;;3.17;;
79452;SDS011;68899;52.116;5.404;2023-10-31T01:22:04;5.30;;;3.25;;
79452;SDS011;68899;52.116;5.404;2023-10-31T01:24:30;7.95;;;3.10;;
79452;SDS011;68899;52.116;5.404;2023-10-31T01:26:57;8.98;;;3.60;;
79452;SDS011;68899;52.116;5.404;2023-10-31T01:29:23;9.68;;;4.13;;
79452;SDS011;68899;52.116;5.404;2023-10-31T01:31:49;8.30;;;3.33;;
79452;SDS011;68899;52.116;5.404;2023-10-31T01:34:26;10.25;;;3.67;;
79452;SDS011;68899;52.116;5.404;2023-10-31T01:36:52;7.35;;;3.05;;
79452;SDS011;68899;52.116;5.404;2023-10-31T01:39:19;7.88;;;3.10;;
79452;SDS011;68899;52.116;5.404;2023-10-31T01:41:45;7.15;;;3.40;;
79452;SDS011;68899;52.116;5.404;2023-10-31T01:44:12;8.75;;;3.35;;
79452;SDS011;68899;52.116;5.404;2023-10-31T01:46:39;7.68;;;3.22;;
79452;SDS011;68899;52.116;5.404;2023-10-31T01:49:05;9.30;;;3.72;;
79452;SDS011;68899;52.116;5.404;2023-10-31T01:51:32;6.25;;;3.13;;
79452;SDS011;68899;52.116;5.404;2023-10-31T01:53:58;7.38;;;2.85;;
79452;SDS011;68899;52.116;5.404;2023-10-31T01:56:25;9.07;;;3.70;;
79452;SDS011;68899;52.116;5.404;2023-10-31T01:58:52;8.52;;;4.53;;
79452;SDS011;68899;52.116;5.404;2023-10-31T02:01:19;10.13;;;3.97;;
79452;SDS011;68899;52.116;5.404;2023-10-31T02:03:46;8.30;;;3.20;;
79452;SDS011;68899;52.116;5.404;2023-10-31T02:06:13;9.60;;;3.72;;
79452;SDS011;68899;52.116;5.404;2023-10-31T02:08:40;9.82;;;3.75;;
79452;SDS011;68899;52.116;5.404;2023-10-31T02:11:06;11.30;;;4.28;;
79452;SDS011;68899;52.116;5.404;2023-10-31T02:13:36;9.63;;;3.95;;
79452;SDS011;68899;52.116;5.404;2023-10-31T02:16:04;9.25;;;4.28;;
79452;SDS011;68899;52.116;5.404;2023-10-31T02:18:31;9.82;;;5.45;;
79452;SDS011;68899;52.116;5.404;2023-10-31T02:20:58;10.98;;;4.90;;
79452;SDS011;68899;52.116;5.404;2023-10-31T02:23:25;11.00;;;5.15;;
79452;SDS011;68899;52.116;5.404;2023-10-31T02:25:51;11.85;;;5.35;;
79452;SDS011;68899;52.116;5.404;2023-10-31T02:28:17;12.65;;;5.32;;
79452;SDS011;68899;52.116;5.404;2023-10-31T02:30:44;9.05;;;4.88;;
79452;SDS011;68899;52.116;5.404;2023-10-31T02:33:11;11.35;;;5.53;;
79452;SDS011;68899;52.116;5.404;2023-10-31T02:35:37;15.50;;;5.63;;
79452;SDS011;68899;52.116;5.404;2023-10-31T02:38:06;11.75;;;5.32;;
79452;SDS011;68899;52.116;5.404;2023-10-31T02:40:33;10.98;;;5.32;;
79452;SDS011;68899;52.116;5.404;2023-10-31T02:42:59;8.10;;;4.35;;
79452;SDS011;68899;52.116;5.404;2023-10-31T02:45:26;8.65;;;3.83;;
79452;SDS011;68899;52.116;5.404;2023-10-31T02:47:52;8.00;;;4.25;;
79452;SDS011;68899;52.116;5.404;2023-10-31T02:50:19;8.10;;;3.80;;
79452;SDS011;68899;52.116;5.404;2023-10-31T02:52:45;7.55;;;3.92;;
79452;SDS011;68899;52.116;5.404;2023-10-31T02:55:12;6.78;;;3.30;;
79452;SDS011;68899;52.116;5.404;2023-10-31T02:57:38;7.43;;;3.30;;
79452;SDS011;68899;52.116;5.404;2023-10-31T03:00:06;6.75;;;2.90;;
79452;SDS011;68899;52.116;5.404;2023-10-31T03:02:33;5.88;;;2.75;;
79452;SDS011;68899;52.116;5.404;2023-10-31T03:04:59;5.20;;;2.42;;
79452;SDS011;68899;52.116;5.404;2023-10-31T03:07:26;4.05;;;2.05;;
79452;SDS011;68899;52.116;5.404;2023-10-31T03:09:52;5.03;;;2.28;;
79452;SDS011;68899;52.116;5.404;2023-10-31T03:12:20;4.68;;;2.25;;
79452;SDS011;68899;52.116;5.404;2023-10-31T03:14:46;4.32;;;2.70;;
79452;SDS011;68899;52.116;5.404;2023-10-31T03:17:13;7.35;;;2.40;;
79452;SDS011;68899;52.116;5.404;2023-10-31T03:19:39;5.88;;;3.17;;
79452;SDS011;68899;52.116;5.404;2023-10-31T03:22:06;8.00;;;2.85;;
79452;SDS011;68899;52.116;5.404;2023-10-31T03:24:32;5.82;;;2.13;;
79452;SDS011;68899;52.116;5.404;2023-10-31T03:26:59;5.82;;;3.20;;
79452;SDS011;68899;52.116;5.404;2023-10-31T03:29:25;7.47;;;3.50;;
79452;SDS011;68899;52.116;5.404;2023-10-31T03:31:52;7.90;;;3.03;;
79452;SDS011;68899;52.116;5.404;2023-10-31T03:34:18;4.80;;;2.38;;
79452;SDS011;68899;52.116;5.404;2023-10-31T03:36:44;4.88;;;2.10;;
79452;SDS011;68899;52.116;5.404;2023-10-31T03:39:12;4.55;;;2.10;;
79452;SDS011;68899;52.116;5.404;2023-10-31T03:41:38;5.55;;;1.90;;
79452;SDS011;68899;52.116;5.404;2023-10-31T03:44:04;6.82;;;1.77;;
79452;SDS011;68899;52.116;5.404;2023-10-31T03:46:31;5.20;;;2.45;;
79452;SDS011;68899;52.116;5.404;2023-10-31T03:48:57;3.05;;;1.15;;
79452;SDS011;68899;52.116;5.404;2023-10-31T03:51:24;4.72;;;0.88;;
79452;SDS011;68899;52.116;5.404;2023-10-31T03:53:50;3.30;;;1.08;;
79452;SDS011;68899;52.116;5.404;2023-10-31T03:56:17;3.30;;;0.82;;
79452;SDS011;68899;52.116;5.404;2023-10-31T03:58:43;2.78;;;0.90;;
79452;SDS011;68899;52.116;5.404;2023-10-31T04:01:10;6.20;;;0.82;;
79452;SDS011;68899;52.116;5.404;2023-10-31T04:03:37;5.78;;;0.73;;
79452;SDS011;68899;52.116;5.404;2023-10-31T04:06:03;3.72;;;0.52;;
79452;SDS011;68899;52.116;5.404;2023-10-31T04:08:30;3.83;;;0.60;;
79452;SDS011;68899;52.116;5.404;2023-10-31T04:10:56;1.95;;;0.90;;
79452;SDS011;68899;52.116;5.404;2023-10-31T04:13:23;1.52;;;0.40;;
79452;SDS011;68899;52.116;5.404;2023-10-31T04:15:49;2.88;;;0.90;;
79452;SDS011;68899;52.116;5.404;2023-10-31T04:18:16;4.57;;;0.77;;
79452;SDS011;68899;52.116;5.404;2023-10-31T04:20:43;4.85;;;0.40;;
79452;SDS011;68899;52.116;5.404;2023-10-31T04:23:09;2.22;;;0.52;;
79452;SDS011;68899;52.116;5.404;2023-10-31T04:25:38;3.20;;;0.40;;
79452;SDS011;68899;52.116;5.404;2023-10-31T04:28:04;4.00;;;0.45;;
79452;SDS011;68899;52.116;5.404;2023-10-31T04:30:31;1.85;;;0.40;;
79452;SDS011;68899;52.116;5.404;2023-10-31T04:32:57;1.77;;;0.25;;
79452;SDS011;68899;52.116;5.404;2023-10-31T04:35:24;4.82;;;0.93;;
79452;SDS011;68899;52.116;5.404;2023-10-31T04:37:50;2.92;;;0.65;;
79452;SDS011;68899;52.116;5.404;2023-10-31T04:40:17;3.80;;;1.42;;
79452;SDS011;68899;52.116;5.404;2023-10-31T04:42:45;5.10;;;0.43;;
79452;SDS011;68899;52.116;5.404;2023-10-31T04:45:13;1.73;;;0.43;;
79452;SDS011;68899;52.116;5.404;2023-10-31T04:47:40;2.00;;;0.57;;
79452;SDS011;68899;52.116;5.404;2023-10-31T04:50:08;1.83;;;0.73;;
79452;SDS011;68899;52.116;5.404;2023-10-31T04:52:34;4.45;;;0.63;;
79452;SDS011;68899;52.116;5.404;2023-10-31T04:55:01;1.67;;;0.50;;
79452;SDS011;68899;52.116;5.404;2023-10-31T04:57:27;2.85;;;0.40;;
79452;SDS011;68899;52.116;5.404;2023-10-31T04:59:54;2.25;;;0.52;;
79452;SDS011;68899;52.116;5.404;2023-10-31T05:02:21;2.40;;;0.30;;
79452;SDS011;68899;52.116;5.404;2023-10-31T05:04:49;2.15;;;0.43;;
79452;SDS011;68899;52.116;5.404;2023-10-31T05:07:17;1.85;;;0.85;;
79452;SDS011;68899;52.116;5.404;2023-10-31T05:09:44;1.95;;;1.27;;
79452;SDS011;68899;52.116;5.404;2023-10-31T05:12:12;1.73;;;0.52;;
79452;SDS011;68899;52.116;5.404;2023-10-31T05:14:39;2.40;;;0.60;;
79452;SDS011;68899;52.116;5.404;2023-10-31T05:17:06;2.10;;;0.63;;
79452;SDS011;68899;52.116;5.404;2023-10-31T05:19:32;3.75;;;1.00;;
79452;SDS011;68899;52.116;5.404;2023-10-31T05:21:59;1.70;;;0.60;;
79452;SDS011;68899;52.116;5.404;2023-10-31T05:24:25;1.80;;;0.47;;
79452;SDS011;68899;52.116;5.404;2023-10-31T05:26:53;1.73;;;0.38;;
79452;SDS011;68899;52.116;5.404;2023-10-31T05:29:19;1.95;;;0.47;;
79452;SDS011;68899;52.116;5.404;2023-10-31T05:31:46;1.60;;;0.45;;
79452;SDS011;68899;52.116;5.404;2023-10-31T05:34:13;1.73;;;0.32;;
79452;SDS011;68899;52.116;5.404;2023-10-31T05:36:40;1.48;;;0.40;;
79452;SDS011;68899;52.116;5.404;2023-10-31T05:39:06;1.73;;;0.82;;
79452;SDS011;68899;52.116;5.404;2023-10-31T05:41:34;1.52;;;0.70;;
79452;SDS011;68899;52.116;5.404;2023-10-31T05:44:01;3.28;;;0.60;;
79452;SDS011;68899;52.116;5.404;2023-10-31T05:46:28;2.78;;;0.70;;
79452;SDS011;68899;52.116;5.404;2023-10-31T05:48:54;2.97;;;0.90;;
79452;SDS011;68899;52.116;5.404;2023-10-31T05:51:21;2.97;;;0.85;;
79452;SDS011;68899;52.116;5.404;2023-10-31T05:53:47;1.98;;;0.90;;
79452;SDS011;68899;52.116;5.404;2023-10-31T05:56:15;3.65;;;1.25;;
79452;SDS011;68899;52.116;5.404;2023-10-31T05:58:42;2.97;;;0.98;;
79452;SDS011;68899;52.116;5.404;2023-10-31T06:01:09;2.72;;;1.17;;
79452;SDS011;68899;52.116;5.404;2023-10-31T06:03:36;3.22;;;1.50;;
79452;SDS011;68899;52.116;5.404;2023-10-31T06:06:03;3.40;;;1.60;;
79452;SDS011;68899;52.116;5.404;2023-10-31T06:08:29;4.75;;;1.67;;
79452;SDS011;68899;52.116;5.404;2023-10-31T06:10:56;6.40;;;1.80;;
79452;SDS011;68899;52.116;5.404;2023-10-31T06:13:23;3.97;;;1.95;;
79452;SDS011;68899;52.116;5.404;2023-10-31T06:15:55;7.82;;;2.25;;
79452;SDS011;68899;52.116;5.404;2023-10-31T06:18:26;4.40;;;1.52;;
79452;SDS011;68899;52.116;5.404;2023-10-31T06:20:53;4.50;;;2.20;;
79452;SDS011;68899;52.116;5.404;2023-10-31T06:23:20;4.40;;;2.42;;
79452;SDS011;68899;52.116;5.404;2023-10-31T06:25:46;6.07;;;2.90;;
79452;SDS011;68899;52.116;5.404;2023-10-31T06:28:13;6.32;;;2.58;;
79452;SDS011;68899;52.116;5.404;2023-10-31T06:30:39;5.88;;;2.72;;
79452;SDS011;68899;52.116;5.404;2023-10-31T06:33:06;5.47;;;2.67;;
79452;SDS011;68899;52.116;5.404;2023-10-31T06:35:33;4.40;;;2.47;;
79452;SDS011;68899;52.116;5.404;2023-10-31T06:38:00;5.82;;;2.17;;
79452;SDS011;68899;52.116;5.404;2023-10-31T06:40:27;6.20;;;2.13;;
79452;SDS011;68899;52.116;5.404;2023-10-31T06:42:53;5.70;;;2.22;;
79452;SDS011;68899;52.116;5.404;2023-10-31T06:45:20;4.40;;;1.73;;
79452;SDS011;68899;52.116;5.404;2023-10-31T06:47:47;4.13;;;1.20;;
79452;SDS011;68899;52.116;5.404;2023-10-31T06:50:13;3.67;;;1.48;;
79452;SDS011;68899;52.116;5.404;2023-10-31T06:52:43;4.43;;;1.35;;
79452;SDS011;68899;52.116;5.404;2023-10-31T06:55:09;2.40;;;1.02;;
79452;SDS011;68899;52.116;5.404;2023-10-31T06:57:36;3.28;;;1.10;;
79452;SDS011;68899;52.116;5.404;2023-10-31T07:00:03;2.05;;;0.80;;
79452;SDS011;68899;52.116;5.404;2023-10-31T07:02:30;2.13;;;0.70;;
79452;SDS011;68899;52.116;5.404;2023-10-31T07:04:57;1.65;;;0.98;;
79452;SDS011;68899;52.116;5.404;2023-10-31T07:07:23;3.35;;;0.80;;
79452;SDS011;68899;52.116;5.404;2023-10-31T07:09:50;3.17;;;0.52;;
79452;SDS011;68899;52.116;5.404;2023-10-31T07:12:16;2.75;;;0.40;;
79452;SDS011;68899;52.116;5.404;2023-10-31T07:14:42;3.58;;;1.05;;
79452;SDS011;68899;52.116;5.404;2023-10-31T07:17:09;1.13;;;0.40;;
79452;SDS011;68899;52.116;5.404;2023-10-31T07:19:35;3.97;;;0.55;;
79452;SDS011;68899;52.116;5.404;2023-10-31T07:22:02;2.45;;;0.52;;
79452;SDS011;68899;52.116;5.404;2023-10-31T07:24:29;1.60;;;0.70;;
79452;SDS011;68899;52.116;5.404;2023-10-31T07:26:55;1.70;;;0.43;;
79452;SDS011;68899;52.116;5.404;2023-10-31T07:29:22;1.20;;;0.50;;
79452;SDS011;68899;52.116;5.404;2023-10-31T07:31:48;3.88;;;0.40;;
79452;SDS011;68899;52.116;5.404;2023-10-31T07:34:15;1.67;;;0.45;;
79452;SDS011;68899;52.116;5.404;2023-10-31T07:36:42;1.52;;;0.60;;
79452;SDS011;68899;52.116;5.404;2023-10-31T07:39:08;1.67;;;0.57;;
79452;SDS011;68899;52.116;5.404;2023-10-31T07:41:35;3.35;;;0.60;;
79452;SDS011;68899;52.116;5.404;2023-10-31T07:44:01;1.67;;;0.45;;
79452;SDS011;68899;52.116;5.404;2023-10-31T07:46:28;2.70;;;0.77;;
79452;SDS011;68899;52.116;5.404;2023-10-31T07:48:54;1.60;;;0.85;;
79452;SDS011;68899;52.116;5.404;2023-10-31T07:51:21;2.25;;;0.90;;
79452;SDS011;68899;52.116;5.404;2023-10-31T07:53:47;2.08;;;0.88;;
79452;SDS011;68899;52.116;5.404;2023-10-31T07:56:14;1.83;;;0.80;;
79452;SDS011;68899;52.116;5.404;2023-10-31T07:58:42;2.10;;;0.75;;
79452;SDS011;68899;52.116;5.404;2023-10-31T08:01:08;2.40;;;0.95;;
79452;SDS011;68899;52.116;5.404;2023-10-31T08:03:38;4.07;;;1.00;;
79452;SDS011;68899;52.116;5.404;2023-10-31T08:06:05;2.25;;;0.90;;
79452;SDS011;68899;52.116;5.404;2023-10-31T08:08:33;2.22;;;0.52;;
79452;SDS011;68899;52.116;5.404;2023-10-31T08:11:03;3.22;;;0.90;;
79452;SDS011;68899;52.116;5.404;2023-10-31T08:13:29;6.57;;;1.02;;
79452;SDS011;68899;52.116;5.404;2023-10-31T08:15:56;3.75;;;1.17;;
79452;SDS011;68899;52.116;5.404;2023-10-31T08:18:23;5.25;;;1.00;;
79452;SDS011;68899;52.116;5.404;2023-10-31T08:20:50;4.95;;;1.50;;
79452;SDS011;68899;52.116;5.404;2023-10-31T08:23:17;3.28;;;1.00;;
79452;SDS011;68899;52.116;5.404;2023-10-31T08:25:44;4.07;;;0.95;;
79452;SDS011;68899;52.116;5.404;2023-10-31T08:28:11;2.35;;;1.27;;
79452;SDS011;68899;52.116;5.404;2023-10-31T08:30:38;2.58;;;1.10;;
79452;SDS011;68899;52.116;5.404;2023-10-31T08:33:05;4.30;;;1.50;;
79452;SDS011;68899;52.116;5.404;2023-10-31T08:35:35;4.30;;;1.33;;
79452;SDS011;68899;52.116;5.404;2023-10-31T08:38:01;3.63;;;1.70;;
79452;SDS011;68899;52.116;5.404;2023-10-31T08:40:28;3.97;;;1.30;;
79452;SDS011;68899;52.116;5.404;2023-10-31T08:42:54;3.63;;;1.58;;
79452;SDS011;68899;52.116;5.404;2023-10-31T08:45:21;3.97;;;1.35;;
79452;SDS011;68899;52.116;5.404;2023-10-31T08:47:49;4.28;;;1.30;;
79452;SDS011;68899;52.116;5.404;2023-10-31T08:50:16;11.70;;;2.70;;
79452;SDS011;68899;52.116;5.404;2023-10-31T08:52:42;5.07;;;1.30;;
79452;SDS011;68899;52.116;5.404;2023-10-31T08:55:09;4.38;;;1.40;;
79452;SDS011;68899;52.116;5.404;2023-10-31T08:57:35;4.18;;;1.63;;
79452;SDS011;68899;52.116;5.404;2023-10-31T09:00:02;3.33;;;1.35;;
79452;SDS011;68899;52.116;5.404;2023-10-31T09:02:31;4.00;;;1.90;;
79452;SDS011;68899;52.116;5.404;2023-10-31T09:04:57;6.13;;;1.33;;
79452;SDS011;68899;52.116;5.404;2023-10-31T09:07:24;6.68;;;1.23;;
79452;SDS011;68899;52.116;5.404;2023-10-31T09:09:50;6.82;;;2.22;;
79452;SDS011;68899;52.116;5.404;2023-10-31T09:12:17;2.85;;;1.33;;
79452;SDS011;68899;52.116;5.404;2023-10-31T09:14:43;6.28;;;1.60;;
79452;SDS011;68899;52.116;5.404;2023-10-31T09:17:10;6.07;;;1.73;;
79452;SDS011;68899;52.116;5.404;2023-10-31T09:19:36;4.90;;;1.38;;
79452;SDS011;68899;52.116;5.404;2023-10-31T09:22:03;3.03;;;1.02;;
79452;SDS011;68899;52.116;5.404;2023-10-31T09:24:30;4.82;;;1.45;;
79452;SDS011;68899;52.116;5.404;2023-10-31T09:26:56;3.28;;;1.88;;
79452;SDS011;68899;52.116;5.404;2023-10-31T09:29:22;3.60;;;1.67;;
79452;SDS011;68899;52.116;5.404;2023-10-31T09:31:55;4.57;;;1.90;;
79452;SDS011;68899;52.116;5.404;2023-10-31T09:34:22;5.63;;;1.83;;
79452;SDS011;68899;52.116;5.404;2023-10-31T09:36:48;3.47;;;2.17;;
79452;SDS011;68899;52.116;5.404;2023-10-31T09:39:14;8.15;;;2.00;;
79452;SDS011;68899;52.116;5.404;2023-10-31T09:41:41;5.68;;;1.80;;
79452;SDS011;68899;52.116;5.404;2023-10-31T09:44:08;5.28;;;2.20;;
79452;SDS011;68899;52.116;5.404;2023-10-31T09:46:34;5.88;;;1.80;;
79452;SDS011;68899;52.116;5.404;2023-10-31T09:49:01;5.25;;;1.90;;
79452;SDS011;68899;52.116;5.404;2023-10-31T09:51:28;6.40;;;2.70;;
79452;SDS011;68899;52.116;5.404;2023-10-31T09:53:56;5.38;;;3.55;;
79452;SDS011;68899;52.116;5.404;2023-10-31T09:56:25;5.93;;;2.10;;
79452;SDS011;68899;52.116;5.404;2023-10-31T09:58:53;5.57;;;1.75;;
79452;SDS011;68899;52.116;5.404;2023-10-31T10:01:19;5.95;;;2.17;;
79452;SDS011;68899;52.116;5.404;2023-10-31T10:03:46;4.07;;;1.63;;
79452;SDS011;68899;52.116;5.404;2023-10-31T10:06:12;5.55;;;1.90;;
79452;SDS011;68899;52.116;5.404;2023-10-31T10:08:39;6.10;;;2.58;;
79452;SDS011;68899;52.116;5.404;2023-10-31T10:11:06;4.35;;;1.60;;
79452;SDS011;68899;52.116;5.404;2023-10-31T10:13:32;6.35;;;1.80;;
79452;SDS011;68899;52.116;5.404;2023-10-31T10:15:59;8.35;;;1.77;;
79452;SDS011;68899;52.116;5.404;2023-10-31T10:18:29;4.93;;;1.60;;
79452;SDS011;68899;52.116;5.404;2023-10-31T10:20:58;4.85;;;1.70;;
79452;SDS011;68899;52.116;5.404;2023-10-31T10:23:26;6.43;;;1.52;;
79452;SDS011;68899;52.116;5.404;2023-10-31T10:25:54;3.80;;;1.45;;
79452;SDS011;68899;52.116;5.404;2023-10-31T10:28:22;6.10;;;2.22;;
79452;SDS011;68899;52.116;5.404;2023-10-31T10:30:51;5.05;;;1.33;;
79452;SDS011;68899;52.116;5.404;2023-10-31T10:33:18;5.47;;;1.63;;
79452;SDS011;68899;52.116;5.404;2023-10-31T10:35:44;8.63;;;1.92;;
79452;SDS011;68899;52.116;5.404;2023-10-31T10:38:12;3.90;;;1.65;;
79452;SDS011;68899;52.116;5.404;2023-10-31T10:40:40;5.03;;;1.83;;
79452;SDS011;68899;52.116;5.404;2023-10-31T10:43:11;4.57;;;1.65;;
79452;SDS011;68899;52.116;5.404;2023-10-31T10:45:51;7.82;;;2.53;;
79452;SDS011;68899;52.116;5.404;2023-10-31T10:48:22;5.30;;;1.33;;
79452;SDS011;68899;52.116;5.404;2023-10-31T10:51:07;4.95;;;1.60;;
79452;SDS011;68899;52.116;5.404;2023-10-31T10:53:44;10.32;;;2.15;;
79452;SDS011;68899;52.116;5.404;2023-10-31T10:57:03;5.80;;;1.35;;
79452;SDS011;68899;52.116;5.404;2023-10-31T11:01:45;6.60;;;3.30;;
79452;SDS011;68899;52.116;5.404;2023-10-31T11:04:13;7.00;;;2.28;;
79452;SDS011;68899;52.116;5.404;2023-10-31T11:06:40;3.95;;;2.10;;
79452;SDS011;68899;52.116;5.404;2023-10-31T11:09:08;6.32;;;2.75;;
79452;SDS011;68899;52.116;5.404;2023-10-31T11:11:37;6.20;;;2.08;;
79452;SDS011;68899;52.116;5.404;2023-10-31T11:14:04;7.10;;;2.42;;
79452;SDS011;68899;52.116;5.404;2023-10-31T11:16:55;6.95;;;1.92;;
79452;SDS011;68899;52.116;5.404;2023-10-31T11:19:22;7.40;;;2.53;;
79452;SDS011;68899;52.116;5.404;2023-10-31T11:22:08;5.97;;;1.73;;
79452;SDS011;68899;52.116;5.404;2023-10-31T11:24:36;5.47;;;1.80;;
79452;SDS011;68899;52.116;5.404;2023-10-31T11:27:04;5.13;;;1.83;;
79452;SDS011;68899;52.116;5.404;2023-10-31T11:29:32;6.38;;;1.58;;
79452;SDS011;68899;52.116;5.404;2023-10-31T11:32:00;3.40;;;1.60;;
79452;SDS011;68899;52.116;5.404;2023-10-31T11:34:28;5.55;;;1.65;;
79452;SDS011;68899;52.116;5.404;2023-10-31T11:42:43;4.47;;;1.33;;
79452;SDS011;68899;52.116;5.404;2023-10-31T11:45:37;5.28;;;1.38;;
79452;SDS011;68899;52.116;5.404;2023-10-31T11:48:15;5.88;;;1.85;;
79452;SDS011;68899;52.116;5.404;2023-10-31T11:50:42;5.15;;;1.90;;
79452;SDS011;68899;52.116;5.404;2023-10-31T11:53:09;6.18;;;2.03;;
79452;SDS011;68899;52.116;5.404;2023-10-31T11:55:41;5.30;;;2.25;;
79452;SDS011;68899;52.116;5.404;2023-10-31T11:58:16;4.95;;;2.22;;
79452;SDS011;68899;52.116;5.404;2023-10-31T12:00:46;8.38;;;2.60;;
79452;SDS011;68899;52.116;5.404;2023-10-31T12:03:15;6.32;;;2.67;;
79452;SDS011;68899;52.116;5.404;2023-10-31T12:05:53;8.45;;;3.10;;
79452;SDS011;68899;52.116;5.404;2023-10-31T12:08:28;6.13;;;3.20;;
79452;SDS011;68899;52.116;5.404;2023-10-31T12:11:09;9.20;;;4.13;;
79452;SDS011;68899;52.116;5.404;2023-10-31T12:13:38;9.23;;;4.57;;
79452;SDS011;68899;52.116;5.404;2023-10-31T12:16:08;13.85;;;5.25;;
79452;SDS011;68899;52.116;5.404;2023-10-31T12:18:36;16.73;;;6.35;;
79452;SDS011;68899;52.116;5.404;2023-10-31T12:21:05;12.43;;;6.53;;
79452;SDS011;68899;52.116;5.404;2023-10-31T12:23:33;14.43;;;7.53;;
79452;SDS011;68899;52.116;5.404;2023-10-31T12:26:00;17.95;;;8.95;;
79452;SDS011;68899;52.116;5.404;2023-10-31T12:28:26;20.27;;;9.15;;
79452;SDS011;68899;52.116;5.404;2023-10-31T12:30:54;14.52;;;8.30;;
79452;SDS011;68899;52.116;5.404;2023-10-31T12:33:22;23.25;;;10.82;;
79452;SDS011;68899;52.116;5.404;2023-10-31T12:35:58;18.45;;;9.27;;
79452;SDS011;68899;52.116;5.404;2023-10-31T12:38:25;21.63;;;11.23;;
79452;SDS011;68899;52.116;5.404;2023-10-31T12:40:52;21.58;;;9.82;;
79452;SDS011;68899;52.116;5.404;2023-10-31T12:43:21;23.23;;;10.82;;
79452;SDS011;68899;52.116;5.404;2023-10-31T12:45:48;21.27;;;9.68;;
79452;SDS011;68899;52.116;5.404;2023-10-31T12:48:14;26.40;;;10.20;;
79452;SDS011;68899;52.116;5.404;2023-10-31T12:50:41;21.90;;;9.65;;
79452;SDS011;68899;52.116;5.404;2023-10-31T12:53:08;24.10;;;10.02;;
79452;SDS011;68899;52.116;5.404;2023-10-31T12:55:41;23.95;;;9.85;;
79452;SDS011;68899;52.116;5.404;2023-10-31T12:58:08;22.40;;;10.98;;
79452;SDS011;68899;52.116;5.404;2023-10-31T13:00:36;21.55;;;10.75;;
79452;SDS011;68899;52.116;5.404;2023-10-31T13:03:04;25.30;;;11.93;;
79452;SDS011;68899;52.116;5.404;2023-10-31T13:05:32;24.85;;;10.15;;
79452;SDS011;68899;52.116;5.404;2023-10-31T13:07:59;26.73;;;11.75;;
79452;SDS011;68899;52.116;5.404;2023-10-31T13:10:30;20.00;;;9.15;;
79452;SDS011;68899;52.116;5.404;2023-10-31T13:13:00;25.63;;;10.20;;
79452;SDS011;68899;52.116;5.404;2023-10-31T13:15:27;24.58;;;10.15;;
79452;SDS011;68899;52.116;5.404;2023-10-31T13:17:53;22.70;;;10.00;;
79452;SDS011;68899;52.116;5.404;2023-10-31T13:20:21;19.10;;;9.00;;
79452;SDS011;68899;52.116;5.404;2023-10-31T13:22:50;20.83;;;10.00;;
79452;SDS011;68899;52.116;5.404;2023-10-31T13:25:16;17.63;;;9.00;;
79452;SDS011;68899;52.116;5.404;2023-10-31T13:27:43;18.05;;;9.63;;
79452;SDS011;68899;52.116;5.404;2023-10-31T13:30:13;17.23;;;9.07;;
79452;SDS011;68899;52.116;5.404;2023-10-31T13:32:40;20.30;;;10.40;;
79452;SDS011;68899;52.116;5.404;2023-10-31T13:35:07;20.42;;;9.20;;
79452;SDS011;68899;52.116;5.404;2023-10-31T13:37:38;20.92;;;9.43;;
79452;SDS011;68899;52.116;5.404;2023-10-31T13:40:05;16.42;;;8.43;;
79452;SDS011;68899;52.116;5.404;2023-10-31T13:42:35;19.00;;;8.55;;
79452;SDS011;68899;52.116;5.404;2023-10-31T13:45:02;16.30;;;8.48;;
79452;SDS011;68899;52.116;5.404;2023-10-31T13:47:32;15.73;;;7.75;;
79452;SDS011;68899;52.116;5.404;2023-10-31T13:49:59;17.90;;;8.07;;
79452;SDS011;68899;52.116;5.404;2023-10-31T13:52:25;15.68;;;8.23;;
79452;SDS011;68899;52.116;5.404;2023-10-31T13:54:52;20.58;;;9.43;;
79452;SDS011;68899;52.116;5.404;2023-10-31T13:57:18;14.93;;;6.85;;
79452;SDS011;68899;52.116;5.404;2023-10-31T13:59:45;17.90;;;7.82;;
79452;SDS011;68899;52.116;5.404;2023-10-31T14:02:12;12.95;;;7.22;;
79452;SDS011;68899;52.116;5.404;2023-10-31T14:04:38;15.60;;;7.03;;
79452;SDS011;68899;52.116;5.404;2023-10-31T14:07:05;15.52;;;7.13;;
79452;SDS011;68899;52.116;5.404;2023-10-31T14:09:32;15.38;;;7.82;;
79452;SDS011;68899;52.116;5.404;2023-10-31T14:11:59;13.00;;;7.05;;
79452;SDS011;68899;52.116;5.404;2023-10-31T14:14:26;16.33;;;7.50;;
79452;SDS011;68899;52.116;5.404;2023-10-31T14:16:52;14.27;;;7.50;;
79452;SDS011;68899;52.116;5.404;2023-10-31T14:19:19;15.52;;;7.47;;
79452;SDS011;68899;52.116;5.404;2023-10-31T14:21:45;13.85;;;7.13;;
79452;SDS011;68899;52.116;5.404;2023-10-31T14:24:12;15.10;;;7.50;;
79452;SDS011;68899;52.116;5.404;2023-10-31T14:26:39;14.10;;;7.15;;
79452;SDS011;68899;52.116;5.404;2023-10-31T14:29:08;16.13;;;8.23;;
79452;SDS011;68899;52.116;5.404;2023-10-31T14:31:40;17.17;;;8.52;;
79452;SDS011;68899;52.116;5.404;2023-10-31T14:34:08;16.52;;;8.02;;
79452;SDS011;68899;52.116;5.404;2023-10-31T14:36:35;14.52;;;7.82;;
79452;SDS011;68899;52.116;5.404;2023-10-31T14:39:02;18.00;;;8.50;;
79452;SDS011;68899;52.116;5.404;2023-10-31T14:41:28;16.27;;;8.43;;
79452;SDS011;68899;52.116;5.404;2023-10-31T14:44:00;15.32;;;7.57;;
79452;SDS011;68899;52.116;5.404;2023-10-31T14:46:28;16.10;;;8.20;;
79452;SDS011;68899;52.116;5.404;2023-10-31T14:48:55;20.98;;;9.57;;
79452;SDS011;68899;52.116;5.404;2023-10-31T14:51:21;18.52;;;9.52;;
79452;SDS011;68899;52.116;5.404;2023-10-31T14:53:48;18.55;;;8.00;;